createdAt,value
2022-11-02T00:00:27.632Z,15.98
2022-11-02T00:02:54.008Z,15.94
2022-11-02T00:05:20.334Z,15.91
2022-11-02T00:07:46.714Z,15.88
2022-11-02T00:10:13.063Z,15.83
2022-11-02T00:12:39.385Z,15.79
2022-11-02T00:15:05.715Z,15.76
2022-11-02T00:17:32.065Z,15.72
2022-11-02T00:19:58.413Z,15.70
2022-11-02T00:22:24.762Z,15.66
2022-11-02T00:24:51.099Z,15.62
2022-11-02T00:27:17.420Z,15.55
2022-11-02T00:29:43.753Z,15.54
2022-11-02T00:32:10.075Z,15.48
2022-11-02T00:34:36.491Z,15.40
2022-11-02T00:37:02.890Z,15.37
2022-11-02T00:39:29.211Z,15.34
2022-11-02T00:41:55.539Z,15.34
2022-11-02T00:44:21.885Z,15.38
2022-11-02T00:46:48.207Z,15.34
2022-11-02T00:49:14.538Z,15.28
2022-11-02T00:51:40.904Z,15.18
2022-11-02T00:54:07.259Z,15.16
2022-11-02T00:56:33.575Z,15.15
2022-11-02T00:58:59.900Z,15.16
2022-11-02T01:01:26.316Z,15.16
2022-11-02T01:03:52.556Z,15.08
2022-11-02T01:06:18.891Z,15.06
2022-11-02T01:08:45.251Z,15.04
2022-11-02T01:11:11.595Z,15.04
2022-11-02T01:13:37.936Z,15.05
2022-11-02T01:16:04.270Z,15.04
2022-11-02T01:18:30.624Z,15.02
2022-11-02T01:20:56.939Z,14.99
2022-11-02T01:23:23.299Z,14.97
2022-11-02T01:25:49.620Z,14.89
2022-11-02T01:28:15.967Z,14.84
2022-11-02T01:30:42.327Z,14.81
2022-11-02T01:33:08.671Z,14.82
2022-11-02T01:35:35.013Z,14.84
2022-11-02T01:38:01.594Z,14.82
2022-11-02T01:40:27.709Z,14.81
2022-11-02T01:42:54.057Z,14.86
2022-11-02T01:45:20.401Z,14.86
2022-11-02T01:47:46.726Z,14.83
2022-11-02T01:50:13.056Z,14.83
2022-11-02T01:52:39.423Z,14.82
2022-11-02T01:55:05.743Z,14.83
2022-11-02T01:57:32.096Z,14.82
2022-11-02T01:59:58.473Z,14.82
2022-11-02T02:02:24.916Z,14.71
2022-11-02T02:04:51.143Z,14.59
2022-11-02T02:07:17.487Z,14.50
2022-11-02T02:09:47.279Z,14.51
2022-11-02T02:12:10.156Z,14.50
2022-11-02T02:14:36.502Z,14.48
2022-11-02T02:17:02.901Z,14.51
2022-11-02T02:19:29.261Z,14.47
2022-11-02T02:21:55.595Z,14.44
2022-11-02T02:24:21.943Z,14.42
2022-11-02T02:26:48.315Z,14.39
2022-11-02T02:29:14.621Z,14.38
2022-11-02T02:31:40.979Z,14.40
2022-11-02T02:34:07.306Z,14.43
2022-11-02T02:36:33.677Z,14.42
2022-11-02T02:39:00.012Z,14.38
2022-11-02T02:41:26.393Z,14.33
2022-11-02T02:43:52.710Z,14.31
2022-11-02T02:46:19.062Z,14.26
2022-11-02T02:48:45.399Z,14.21
2022-11-02T02:51:11.779Z,14.19
2022-11-02T02:53:38.151Z,14.13
2022-11-02T02:56:04.498Z,14.03
2022-11-02T02:58:30.840Z,13.96
2022-11-02T03:00:57.189Z,13.92
2022-11-02T03:03:23.507Z,13.90
2022-11-02T03:05:49.869Z,13.90
2022-11-02T03:08:16.211Z,13.85
2022-11-02T03:10:42.561Z,13.80
2022-11-02T03:13:08.904Z,13.81
2022-11-02T03:15:35.224Z,13.81
2022-11-02T03:18:01.860Z,13.80
2022-11-02T03:20:27.891Z,13.74
2022-11-02T03:22:54.209Z,13.70
2022-11-02T03:25:20.534Z,13.70
2022-11-02T03:27:46.865Z,13.70
2022-11-02T03:30:13.244Z,13.70
2022-11-02T03:32:39.581Z,13.75
2022-11-02T03:35:05.908Z,13.67
2022-11-02T03:37:32.253Z,13.59
2022-11-02T03:39:58.644Z,13.56
2022-11-02T03:42:24.977Z,13.55
2022-11-02T03:44:51.306Z,13.56
2022-11-02T03:47:17.681Z,13.57
2022-11-02T03:49:44.008Z,13.58
2022-11-02T03:52:10.322Z,13.55
2022-11-02T03:54:36.707Z,13.52
2022-11-02T03:59:29.341Z,13.48
2022-11-02T04:01:55.733Z,13.46
2022-11-02T04:04:22.009Z,13.43
2022-11-02T04:06:48.349Z,13.39
2022-11-02T04:09:14.700Z,13.38
2022-11-02T04:11:41.035Z,13.33
2022-11-02T04:14:07.397Z,13.36
2022-11-02T04:16:33.733Z,13.32
2022-11-02T04:19:00.061Z,13.29
2022-11-02T04:21:26.375Z,13.24
2022-11-02T04:23:52.726Z,13.27
2022-11-02T04:26:19.099Z,13.24
2022-11-02T04:28:45.449Z,13.19
2022-11-02T04:31:11.762Z,13.17
2022-11-02T04:33:38.115Z,13.13
2022-11-02T04:36:04.450Z,13.10
2022-11-02T04:38:30.777Z,13.11
2022-11-02T04:40:57.098Z,13.11
2022-11-02T04:43:23.427Z,13.11
2022-11-02T04:45:49.767Z,13.07
2022-11-02T04:48:16.094Z,13.03
2022-11-02T04:50:42.439Z,13.00
2022-11-02T04:53:08.825Z,12.97
2022-11-02T04:55:35.143Z,12.97
2022-11-02T04:58:01.634Z,12.98
2022-11-02T05:00:27.820Z,12.97
2022-11-02T05:02:54.238Z,13.00
2022-11-02T05:05:20.501Z,13.02
2022-11-02T05:07:46.828Z,13.03
2022-11-02T05:10:13.185Z,13.04
2022-11-02T05:12:39.556Z,12.98
2022-11-02T05:15:05.851Z,12.93
2022-11-02T05:17:32.205Z,12.94
2022-11-02T05:19:58.634Z,12.96
2022-11-02T05:22:24.958Z,12.96
2022-11-02T05:24:51.276Z,12.98
2022-11-02T05:27:17.629Z,13.03
2022-11-02T05:29:43.955Z,13.04
2022-11-02T05:32:10.284Z,13.08
2022-11-02T05:34:36.624Z,13.16
2022-11-02T05:37:02.973Z,13.28
2022-11-02T05:39:29.290Z,13.64
2022-11-02T05:41:55.660Z,13.92
2022-11-02T05:44:22.032Z,14.19
2022-11-02T05:46:48.323Z,14.24
2022-11-02T05:49:14.672Z,14.20
2022-11-02T05:51:41.025Z,14.22
2022-11-02T05:54:07.393Z,14.26
2022-11-02T05:56:33.752Z,14.34
2022-11-02T05:59:00.056Z,14.44
2022-11-02T06:01:26.455Z,14.53
2022-11-02T06:03:53.904Z,14.68
2022-11-02T06:06:19.146Z,14.87
2022-11-02T06:08:45.518Z,14.99
2022-11-02T06:11:11.863Z,15.13
2022-11-02T06:13:38.196Z,15.33
2022-11-02T06:16:04.525Z,15.50
2022-11-02T06:18:30.886Z,15.61
2022-11-02T06:20:57.210Z,15.72
2022-11-02T06:23:23.528Z,15.83
2022-11-02T06:25:49.878Z,16.06
2022-11-02T06:28:16.190Z,16.28
2022-11-02T06:30:42.521Z,16.53
2022-11-02T06:33:09.267Z,16.78
2022-11-02T06:35:35.265Z,17.07
2022-11-02T06:38:01.592Z,17.34
2022-11-02T06:40:27.954Z,17.65
2022-11-02T06:43:10.938Z,17.98
2022-11-02T06:45:20.600Z,18.32
2022-11-02T06:47:46.946Z,18.60
2022-11-02T06:50:13.261Z,18.91
2022-11-02T06:52:39.614Z,19.22
2022-11-02T06:55:05.974Z,19.48
2022-11-02T06:57:32.313Z,19.72
2022-11-02T06:59:58.695Z,19.98
2022-11-02T07:02:25.047Z,20.21
2022-11-02T07:04:51.349Z,20.37
2022-11-02T07:07:17.666Z,20.39
2022-11-02T07:09:44.015Z,20.40
2022-11-02T07:12:10.337Z,20.38
2022-11-02T07:14:36.691Z,20.43
2022-11-02T07:17:03.023Z,20.56
2022-11-02T07:19:29.372Z,20.59
2022-11-02T07:21:55.724Z,20.80
2022-11-02T07:26:57.456Z,21.14
2022-11-02T07:29:23.798Z,21.39
2022-11-02T07:31:50.150Z,21.65
2022-11-02T07:34:17.339Z,21.75
2022-11-02T07:36:42.833Z,21.91
2022-11-02T07:39:09.178Z,21.97
2022-11-02T07:41:35.556Z,22.16
2022-11-02T07:44:01.901Z,22.44
2022-11-02T07:46:28.227Z,22.75
2022-11-02T07:48:54.555Z,22.94
2022-11-02T07:51:20.924Z,23.01
2022-11-02T07:53:47.245Z,23.29
2022-11-02T07:56:13.592Z,23.44
2022-11-02T07:58:39.933Z,23.63
2022-11-02T08:01:06.362Z,23.87
2022-11-02T08:03:32.748Z,24.02
2022-11-02T08:05:59.063Z,24.20
2022-11-02T08:08:25.411Z,24.43
2022-11-02T08:10:51.748Z,24.60
2022-11-02T08:13:18.089Z,24.51
2022-11-02T08:15:44.433Z,24.27
2022-11-02T08:18:10.794Z,23.76
2022-11-02T08:20:37.123Z,23.83
2022-11-02T08:23:03.488Z,24.04
2022-11-02T08:25:29.831Z,24.29
2022-11-02T08:27:56.226Z,24.51
2022-11-02T08:30:22.544Z,24.61
2022-11-02T08:32:51.546Z,24.73
2022-11-02T08:35:15.205Z,24.90
2022-11-02T08:37:41.541Z,25.06
2022-11-02T08:40:07.891Z,25.24
2022-11-02T08:42:34.248Z,25.35
2022-11-02T08:45:00.569Z,25.31
2022-11-02T08:47:26.952Z,25.29
2022-11-02T08:49:53.350Z,25.54
2022-11-02T08:52:19.676Z,25.76
2022-11-02T08:54:46.006Z,25.87
2022-11-02T08:57:12.336Z,26.25
2022-11-02T08:59:38.699Z,26.47
2022-11-02T09:02:05.204Z,26.62
2022-11-02T09:04:31.394Z,26.93
2022-11-02T09:06:57.726Z,27.11
2022-11-02T09:09:24.073Z,27.37
2022-11-02T09:11:50.415Z,27.63
2022-11-02T09:14:16.839Z,27.88
2022-11-02T09:16:43.158Z,28.09
2022-11-02T09:19:09.474Z,28.30
2022-11-02T09:21:35.824Z,28.55
2022-11-02T09:24:02.159Z,28.75
2022-11-02T09:26:28.518Z,28.76
2022-11-02T09:28:54.832Z,28.85
2022-11-02T09:31:21.222Z,29.02
2022-11-02T09:33:47.584Z,29.16
2022-11-02T09:36:13.923Z,29.25
2022-11-02T09:38:40.275Z,29.31
2022-11-02T09:41:06.624Z,29.26
2022-11-02T09:43:32.993Z,29.25
2022-11-02T09:45:59.334Z,29.11
2022-11-02T09:48:28.665Z,29.20
2022-11-02T09:50:53.431Z,29.43
2022-11-02T09:53:18.368Z,29.70
2022-11-02T09:55:44.793Z,29.71
2022-11-02T09:58:11.139Z,29.79
2022-11-02T10:00:37.506Z,30.11
2022-11-02T10:03:03.880Z,30.34
2022-11-02T10:05:30.160Z,30.56
2022-11-02T10:07:56.487Z,30.68
2022-11-02T10:10:22.826Z,30.84
2022-11-02T10:12:49.210Z,31.07
2022-11-02T10:15:15.530Z,31.17
2022-11-02T10:17:41.884Z,31.22
2022-11-02T10:20:08.230Z,31.32
2022-11-02T10:22:34.569Z,31.29
2022-11-02T10:25:01.049Z,31.38
2022-11-02T10:27:27.369Z,31.27
2022-11-02T10:29:53.720Z,31.19
2022-11-02T10:32:20.077Z,31.41
2022-11-02T10:34:54.143Z,31.60
2022-11-02T10:37:12.742Z,31.77
2022-11-02T10:39:39.070Z,31.94
2022-11-02T10:42:05.431Z,32.08
2022-11-02T10:44:31.783Z,32.14
2022-11-02T10:46:58.114Z,32.21
2022-11-02T10:49:24.453Z,32.24
2022-11-02T10:51:50.776Z,32.41
2022-11-02T10:54:20.646Z,32.50
2022-11-02T10:56:43.470Z,32.56
2022-11-02T10:59:09.808Z,32.67
2022-11-02T11:01:36.199Z,32.74
2022-11-02T11:04:02.521Z,32.78
2022-11-02T11:06:28.831Z,32.71
2022-11-02T11:08:55.197Z,32.80
2022-11-02T11:11:21.516Z,32.92
2022-11-02T11:16:17.724Z,33.09
2022-11-02T11:21:06.930Z,33.35
2022-11-02T11:23:33.258Z,33.45
2022-11-02T11:25:59.612Z,33.53
2022-11-02T11:28:25.955Z,33.56
2022-11-02T11:30:59.904Z,33.42
2022-11-02T11:33:18.699Z,33.37
2022-11-02T11:35:45.021Z,33.40
2022-11-02T11:38:11.376Z,33.45
2022-11-02T11:40:37.717Z,33.49
2022-11-02T11:43:04.046Z,33.22
2022-11-02T11:45:30.388Z,33.22
2022-11-02T11:47:56.735Z,33.13
2022-11-02T11:50:24.143Z,33.17
2022-11-02T11:52:49.390Z,32.89
2022-11-02T11:55:15.716Z,32.18
2022-11-02T11:57:42.042Z,31.85
2022-11-02T12:00:08.398Z,31.81
2022-11-02T12:02:39.407Z,31.54
2022-11-02T12:05:01.044Z,31.16
2022-11-02T12:07:27.379Z,30.94
2022-11-02T12:09:53.738Z,30.93
2022-11-02T12:12:20.050Z,30.70
2022-11-02T12:14:46.384Z,30.15
2022-11-02T12:17:12.713Z,29.78
2022-11-02T12:19:39.040Z,29.87
2022-11-02T12:22:05.389Z,29.95
2022-11-02T12:24:31.767Z,30.09
2022-11-02T12:26:58.089Z,29.95
2022-11-02T12:29:24.481Z,29.78
2022-11-02T12:31:50.822Z,29.46
2022-11-02T12:34:17.160Z,29.07
2022-11-02T12:37:11.117Z,29.25
2022-11-02T12:39:09.823Z,29.20
2022-11-02T12:41:36.170Z,29.31
2022-11-02T12:44:02.515Z,29.48
2022-11-02T12:46:29.997Z,29.39
2022-11-02T12:48:55.173Z,29.49
2022-11-02T12:51:21.568Z,29.39
2022-11-02T12:53:47.900Z,29.19
2022-11-02T12:56:14.229Z,29.53
2022-11-02T12:58:40.558Z,29.41
2022-11-02T13:01:12.293Z,29.44
2022-11-02T13:03:33.242Z,29.17
2022-11-02T13:05:59.597Z,29.30
2022-11-02T13:08:25.932Z,29.23
2022-11-02T13:10:53.774Z,29.08
2022-11-02T13:13:18.626Z,28.94
2022-11-02T13:15:44.990Z,28.72
2022-11-02T13:18:11.331Z,28.47
2022-11-02T13:20:37.659Z,28.47
2022-11-02T13:23:04.396Z,28.15
2022-11-02T13:25:30.336Z,27.66
2022-11-02T13:27:59.038Z,27.69
2022-11-02T13:30:23.030Z,27.73
2022-11-02T13:32:49.387Z,27.51
2022-11-02T13:35:15.701Z,27.34
2022-11-02T13:37:42.021Z,27.05
2022-11-02T13:40:08.390Z,26.87
2022-11-02T13:42:34.738Z,26.74
2022-11-02T13:45:01.088Z,26.58
2022-11-02T13:47:27.440Z,26.61
2022-11-02T13:49:53.782Z,26.46
2022-11-02T13:52:20.099Z,26.23
2022-11-02T13:54:46.543Z,26.00
2022-11-02T13:57:12.791Z,25.88
2022-11-02T13:59:43.121Z,25.88
2022-11-02T14:02:05.688Z,25.89
2022-11-02T14:04:31.863Z,26.03
2022-11-02T14:06:58.156Z,26.11
2022-11-02T14:09:24.521Z,25.92
2022-11-02T14:11:50.866Z,25.60
2022-11-02T14:14:17.186Z,25.51
2022-11-02T14:16:43.516Z,25.65
2022-11-02T14:19:10.475Z,25.49
2022-11-02T14:21:36.166Z,25.53
2022-11-02T14:24:02.565Z,25.33
2022-11-02T14:26:28.899Z,25.44
2022-11-02T14:28:55.252Z,25.61
2022-11-02T14:31:21.697Z,25.64
2022-11-02T14:33:48.031Z,25.57
2022-11-02T14:36:14.377Z,25.48
2022-11-02T14:38:40.695Z,25.55
2022-11-02T14:41:07.016Z,25.55
2022-11-02T14:43:33.375Z,25.46
2022-11-02T14:46:01.506Z,25.38
2022-11-02T14:48:26.039Z,25.35
2022-11-02T14:50:52.387Z,25.43
2022-11-02T14:53:18.717Z,25.36
2022-11-02T14:55:45.072Z,25.41
2022-11-02T14:58:11.517Z,25.55
2022-11-02T15:00:37.775Z,25.58
2022-11-02T15:03:04.395Z,25.54
2022-11-02T15:05:30.410Z,25.50
2022-11-02T15:07:56.760Z,25.48
2022-11-02T15:10:23.079Z,25.44
2022-11-02T15:12:49.407Z,25.37
2022-11-02T15:15:15.755Z,25.30
2022-11-02T15:17:42.089Z,25.24
2022-11-02T15:20:08.435Z,25.16
2022-11-02T15:22:34.823Z,25.09
2022-11-02T15:25:01.298Z,25.02
2022-11-02T15:27:27.587Z,24.96
2022-11-02T15:29:53.957Z,24.87
2022-11-02T15:32:22.821Z,24.81
2022-11-02T15:34:46.628Z,24.75
2022-11-02T15:37:12.956Z,24.68
2022-11-02T15:39:39.290Z,24.62
2022-11-02T15:42:05.647Z,24.55
2022-11-02T15:44:31.966Z,24.48
2022-11-02T15:46:58.295Z,24.43
2022-11-02T15:49:24.622Z,24.38
2022-11-02T15:51:51.067Z,24.31
2022-11-02T15:54:17.396Z,24.25
2022-11-02T15:56:43.742Z,24.19
2022-11-02T15:59:10.062Z,24.13
2022-11-02T16:01:36.482Z,24.08
2022-11-02T16:04:02.812Z,24.03
2022-11-02T16:06:29.084Z,23.98
2022-11-02T16:08:55.423Z,23.92
2022-11-02T16:11:21.752Z,23.85
2022-11-02T16:14:08.093Z,23.80
2022-11-02T16:16:14.421Z,23.73
2022-11-02T16:18:40.766Z,23.71
2022-11-02T16:21:07.133Z,23.66
2022-11-02T16:23:33.468Z,23.60
2022-11-02T16:25:59.816Z,23.52
2022-11-02T16:28:26.190Z,23.46
2022-11-02T16:30:52.530Z,23.42
2022-11-02T16:33:18.876Z,23.37
2022-11-02T16:35:45.208Z,23.32
2022-11-02T16:38:11.537Z,23.26
2022-11-02T16:40:37.872Z,23.23
2022-11-02T16:43:04.192Z,23.19
2022-11-02T16:45:30.588Z,23.14
2022-11-02T16:47:56.902Z,23.08
2022-11-02T16:50:23.247Z,23.03
2022-11-02T16:52:49.564Z,22.98
2022-11-02T16:55:15.915Z,22.93
2022-11-02T16:57:42.252Z,22.87
2022-11-02T17:00:08.591Z,22.83
2022-11-02T17:02:35.120Z,22.78
2022-11-02T17:05:05.803Z,22.73
2022-11-02T17:07:27.795Z,22.68
2022-11-02T17:09:54.284Z,22.64
2022-11-02T17:12:20.579Z,22.57
2022-11-02T17:14:46.957Z,22.52
2022-11-02T17:17:13.494Z,22.48
2022-11-02T17:19:39.869Z,22.44
2022-11-02T17:22:06.198Z,22.38
2022-11-02T17:24:32.549Z,22.34
2022-11-02T17:26:58.985Z,22.31
2022-11-02T17:29:25.391Z,22.30
2022-11-02T17:31:51.718Z,22.26
2022-11-02T17:34:18.101Z,22.24
2022-11-02T17:36:44.388Z,22.22
2022-11-02T17:39:10.778Z,22.18
2022-11-02T17:41:37.118Z,22.12
2022-11-02T17:44:03.477Z,22.04
2022-11-02T17:46:29.820Z,21.98
2022-11-02T17:48:56.163Z,21.94
2022-11-02T17:51:22.528Z,21.90
2022-11-02T17:53:48.859Z,21.86
2022-11-02T17:56:15.192Z,21.83
2022-11-02T17:58:41.560Z,21.80
2022-11-02T18:01:07.916Z,21.76
2022-11-02T18:03:34.220Z,21.73
2022-11-02T18:06:00.932Z,21.70
2022-11-02T18:08:26.955Z,21.65
2022-11-02T18:10:53.291Z,21.62
2022-11-02T18:13:19.653Z,21.58
2022-11-02T18:15:45.980Z,21.57
2022-11-02T18:18:12.310Z,21.52
2022-11-02T18:20:41.520Z,21.49
2022-11-02T18:23:05.263Z,21.48
2022-11-02T18:25:31.353Z,21.48
2022-11-02T18:27:57.717Z,21.50
2022-11-02T18:30:24.045Z,21.48
2022-11-02T18:32:50.374Z,21.44
2022-11-02T18:35:16.727Z,21.41
2022-11-02T18:37:43.060Z,21.39
2022-11-02T18:40:09.416Z,21.37
2022-11-02T18:42:35.734Z,21.33
2022-11-02T18:45:02.095Z,21.30
2022-11-02T18:47:28.443Z,21.27
2022-11-02T18:49:54.837Z,21.25
2022-11-02T18:52:22.487Z,21.23
2022-11-02T18:54:47.524Z,21.22
2022-11-02T18:57:13.855Z,21.21
2022-11-02T18:59:40.213Z,21.25
2022-11-02T19:02:06.668Z,21.23
2022-11-02T19:04:32.897Z,21.18
2022-11-02T19:06:59.233Z,21.13
2022-11-02T19:09:25.556Z,21.11
2022-11-02T19:11:51.939Z,21.08
2022-11-02T19:14:18.282Z,21.07
2022-11-02T19:16:44.629Z,21.04
2022-11-02T19:19:11.004Z,21.01
2022-11-02T19:21:37.343Z,20.99
2022-11-02T19:24:03.688Z,20.98
2022-11-02T19:26:30.047Z,20.96
2022-11-02T19:28:58.785Z,20.92
2022-11-02T19:31:22.711Z,20.89
2022-11-02T19:33:49.074Z,20.87
2022-11-02T19:36:15.393Z,20.86
2022-11-02T19:38:41.756Z,20.82
2022-11-02T19:41:08.104Z,20.80
2022-11-02T19:43:34.461Z,20.77
2022-11-02T19:46:00.803Z,20.74
2022-11-02T19:48:27.188Z,20.72
2022-11-02T19:50:53.501Z,20.68
2022-11-02T19:53:19.842Z,20.67
2022-11-02T19:55:46.149Z,20.65
2022-11-02T19:58:12.473Z,20.64
2022-11-02T20:00:38.888Z,20.62
2022-11-02T20:03:05.273Z,20.59
2022-11-02T20:05:31.577Z,20.57
2022-11-02T20:07:57.927Z,20.54
2022-11-02T20:10:24.273Z,20.53
2022-11-02T20:12:50.621Z,20.50
2022-11-02T20:15:16.972Z,20.47
2022-11-02T20:18:05.624Z,20.47
2022-11-02T20:20:09.655Z,20.46
2022-11-02T20:22:36.051Z,20.45
2022-11-02T20:25:02.373Z,20.44
2022-11-02T20:27:28.782Z,20.42
2022-11-02T20:29:55.084Z,20.39
2022-11-02T20:32:21.435Z,20.36
2022-11-02T20:34:47.790Z,20.35
2022-11-02T20:37:14.122Z,20.32
2022-11-02T20:39:40.475Z,20.29
2022-11-02T20:42:06.841Z,20.28
2022-11-02T20:44:33.205Z,20.28
2022-11-02T20:46:59.558Z,20.26
2022-11-02T20:51:52.367Z,20.24
2022-11-02T20:54:18.712Z,20.22
2022-11-02T20:56:45.033Z,20.22
2022-11-02T20:59:11.379Z,20.20
2022-11-02T21:01:37.805Z,20.19
2022-11-02T21:04:04.066Z,20.19
2022-11-02T21:06:30.454Z,20.17
2022-11-02T21:08:56.769Z,20.15
2022-11-02T21:11:23.119Z,20.12
2022-11-02T21:13:49.496Z,20.09
2022-11-02T21:16:15.843Z,20.07
2022-11-02T21:18:42.179Z,20.07
2022-11-02T21:21:08.517Z,20.06
2022-11-02T21:23:34.855Z,20.03
2022-11-02T21:26:01.195Z,20.01
2022-11-02T21:28:27.545Z,20.01
2022-11-02T21:30:53.895Z,19.99
2022-11-02T21:33:20.240Z,19.99
2022-11-02T21:35:46.585Z,19.96
2022-11-02T21:38:12.933Z,19.93
2022-11-02T21:40:39.267Z,19.91
2022-11-02T21:43:05.843Z,19.90
2022-11-02T21:45:36.610Z,19.89
2022-11-02T21:47:58.326Z,19.88
2022-11-02T21:50:24.708Z,19.86
2022-11-02T21:52:51.034Z,19.84
2022-11-02T21:55:17.384Z,19.83
2022-11-02T21:57:43.748Z,19.84
2022-11-02T22:00:10.120Z,19.82
2022-11-02T22:02:36.496Z,19.82
2022-11-02T22:05:02.783Z,19.81
2022-11-02T22:07:29.136Z,19.81
2022-11-02T22:09:55.460Z,19.80
2022-11-02T22:12:21.779Z,19.79
2022-11-02T22:14:48.130Z,19.78
2022-11-02T22:17:35.741Z,19.76
2022-11-02T22:19:40.788Z,19.76
2022-11-02T22:22:07.108Z,19.74
2022-11-02T22:24:33.514Z,19.72
2022-11-02T22:26:59.853Z,19.72
2022-11-02T22:29:26.177Z,19.71
2022-11-02T22:31:52.559Z,19.71
2022-11-02T22:34:18.908Z,19.71
2022-11-02T22:36:45.226Z,19.71
2022-11-02T22:39:11.600Z,19.69
2022-11-02T22:41:37.936Z,19.68
2022-11-02T22:44:04.286Z,19.66
2022-11-02T22:46:30.601Z,19.66
2022-11-02T22:48:56.981Z,19.68
2022-11-02T22:51:23.300Z,19.68
2022-11-02T22:53:49.624Z,19.68
2022-11-02T22:56:15.951Z,19.67
2022-11-02T22:58:42.336Z,19.66
2022-11-02T23:01:08.728Z,19.64
2022-11-02T23:03:35.020Z,19.61
2022-11-02T23:06:01.364Z,19.59
2022-11-02T23:10:54.644Z,19.61
2022-11-02T23:13:20.387Z,19.58
2022-11-02T23:15:46.710Z,19.56
2022-11-02T23:18:13.036Z,19.53
2022-11-02T23:20:39.435Z,19.50
2022-11-02T23:23:05.943Z,19.46
2022-11-02T23:25:32.104Z,19.46
2022-11-02T23:27:58.478Z,19.42
2022-11-02T23:30:24.813Z,19.39
2022-11-02T23:32:51.131Z,19.39
2022-11-02T23:35:17.521Z,19.39
2022-11-02T23:37:43.867Z,19.38
2022-11-02T23:40:10.194Z,19.35
2022-11-02T23:42:36.543Z,19.33
2022-11-02T23:45:02.864Z,19.31
2022-11-02T23:47:29.189Z,19.29
2022-11-02T23:49:55.549Z,19.27
2022-11-02T23:52:21.877Z,19.26
2022-11-02T23:54:48.200Z,19.25
2022-11-02T23:57:14.549Z,19.22
2022-11-02T23:59:40.895Z,19.19
